Bishop, California
Current Conditions -  °F | °C
As of 8:56 AM on Friday 28 Nov 2014 (Local Time) from KBIH Reporting Station
Clear Clear  
Wind Chill: 44°   Ceiling: Unl
Heat Index: 44°   Visibility: 10mi
Dew Point: 15°   Wind: 3mph
Humidity: 31%   Direction: 30°NNE
Pressure: 30.11"   Gusts: NA
Location:  37.24°N, 118.4°W
Report Text: KBIH 281656Z AUTO 03003KT 10SM CLR 07/M09 A3011 RMK AO2 SLP190 T00671094
Loading
Personal Weather Stations






























Interactive Weather Map New forecast layout! Learn more

10-Day Weather Forecast

Advertisements
Track Severe Weather on mobile